Time;durP1;ratioP1;P1;durP2;ratioP2;P2;SDS_P1;SDS_P2;PMS_P1;PMS_P2;Temp;Humidity;BMP_temperature;BMP_pressure;BME280_temperature;BME280_humidity;BME280_pressure;Samples;Min_cycle;Max_cycle;Signal;HPM_P1;HPM_P2
2021/04/26 00:04:22;;;;;;;7.00;5.15;;;;;;;;;;10317410;28;20080;-59
2021/04/26 00:09:20;;;;;;;6.07;4.65;;;;;;;;;;10317502;28;20087;-59
2021/04/26 00:14:17;;;;;;;5.40;4.90;;;;;;;;;;10317180;28;20041;-59
2021/04/26 00:19:15;;;;;;;5.43;4.63;;;;;;;;;;10317057;28;20391;-59
2021/04/26 00:24:13;;;;;;;6.47;4.78;;;;;;;;;;10317471;28;20056;-59
2021/04/26 00:29:10;;;;;;;10.95;5.13;;;;;;;;;;10316888;28;20532;-59
2021/04/26 00:34:08;;;;;;;5.50;4.32;;;;;;;;;;10316889;28;20041;-58
2021/04/26 00:39:05;;;;;;;16.15;11.15;;;;;;;;;;10315981;28;20091;-59
2021/04/26 00:44:04;;;;;;;4.88;4.45;;;;;;;;;;10316583;28;20049;-59
2021/04/26 00:49:01;;;;;;;10.52;6.68;;;;;;;;;;10316442;28;20088;-60
2021/04/26 00:53:59;;;;;;;6.57;4.72;;;;;;;;;;10315643;28;20048;-59
2021/04/26 00:58:56;;;;;;;8.35;7.13;;;;;;;;;;10314531;28;20052;-58
2021/04/26 01:03:55;;;;;;;7.78;5.05;;;;;;;;;;10314506;28;20041;-59
2021/04/26 01:08:53;;;;;;;8.38;7.00;;;;;;;;;;10315929;28;20084;-59
2021/04/26 01:14:01;;;;;;;5.95;5.40;;;;;;;;;;10323095;28;20044;-59
2021/04/26 01:19:03;;;;;;;7.80;5.45;;;;;;;;;;10321798;28;20494;-59
2021/04/26 01:24:15;;;;;;;7.75;6.95;;;;;;;;;;10321958;28;20438;-59
2021/04/26 01:29:29;;;;;;;8.10;6.32;;;;;;;;;;10291076;28;20087;-58
2021/04/26 01:34:29;;;;;;;6.20;4.47;;;;;;;;;;10321459;28;20051;-59
2021/04/26 01:39:36;;;;;;;7.25;6.55;;;;;;;;;;10321304;28;20064;-59
2021/04/26 01:44:35;;;;;;;7.30;6.55;;;;;;;;;;10321769;28;20504;-60
2021/04/26 01:49:34;;;;;;;9.85;8.95;;;;;;;;;;10320811;28;20084;-59
2021/04/26 01:54:31;;;;;;;5.57;4.88;;;;;;;;;;10320618;28;20057;-59
2021/04/26 01:59:29;;;;;;;8.00;6.38;;;;;;;;;;10322077;28;20061;-59
2021/04/26 02:04:28;;;;;;;6.43;4.55;;;;;;;;;;10321971;28;20040;-59
2021/04/26 02:09:49;;;;;;;6.38;5.78;;;;;;;;;;10320129;28;20111;-59
2021/04/26 02:14:49;;;;;;;7.45;5.55;;;;;;;;;;10320341;28;20060;-59
2021/04/26 02:19:47;;;;;;;7.57;5.90;;;;;;;;;;10320971;28;20053;-59
2021/04/26 02:24:46;;;;;;;8.00;5.07;;;;;;;;;;10321466;28;20033;-59
2021/04/26 02:29:45;;;;;;;8.38;4.80;;;;;;;;;;10319094;28;20426;-59
2021/04/26 02:34:45;;;;;;;4.57;3.83;;;;;;;;;;10319141;28;20278;-59
2021/04/26 02:39:44;;;;;;;4.88;3.90;;;;;;;;;;10321037;28;20060;-58
2021/04/26 02:44:44;;;;;;;7.28;3.95;;;;;;;;;;10320400;28;20053;-59
2021/04/26 02:49:45;;;;;;;5.40;4.45;;;;;;;;;;10320110;28;20080;-59
2021/04/26 02:54:45;;;;;;;6.32;4.95;;;;;;;;;;10319268;28;20041;-58
2021/04/26 02:59:44;;;;;;;7.75;5.30;;;;;;;;;;10317749;28;20060;-58
2021/04/26 03:04:44;;;;;;;5.97;4.13;;;;;;;;;;10317512;28;20044;-59
2021/04/26 03:09:44;;;;;;;7.03;5.47;;;;;;;;;;10317431;28;20508;-58
2021/04/26 03:14:42;;;;;;;8.07;4.85;;;;;;;;;;10319486;28;20053;-58
2021/04/26 03:19:40;;;;;;;5.28;4.63;;;;;;;;;;10318980;28;20040;-58
2021/04/26 03:24:39;;;;;;;12.82;6.25;;;;;;;;;;10317101;28;20044;-58
2021/04/26 03:29:37;;;;;;;5.90;4.75;;;;;;;;;;10318974;28;20080;-58
2021/04/26 03:34:35;;;;;;;5.78;3.70;;;;;;;;;;10316725;28;20056;-58
2021/04/26 03:39:34;;;;;;;6.35;4.60;;;;;;;;;;10318204;28;20075;-59
2021/04/26 03:44:34;;;;;;;7.78;4.40;;;;;;;;;;10315590;28;20048;-57
2021/04/26 03:49:50;;;;;;;4.50;4.00;;;;;;;;;;10320614;28;20091;-58
2021/04/26 03:55:07;;;;;;;5.80;4.63;;;;;;;;;;10318505;28;20083;-58
2021/04/26 04:00:06;;;;;;;10.55;4.93;;;;;;;;;;10316954;28;20056;-59
2021/04/26 04:05:07;;;;;;;11.27;8.70;;;;;;;;;;10319030;28;20422;-58
2021/04/26 04:10:27;;;;;;;7.15;4.93;;;;;;;;;;10316624;28;20504;-59
2021/04/26 04:15:55;;;;;;;9.65;5.30;;;;;;;;;;10313434;28;20083;-58
2021/04/26 04:20:55;;;;;;;10.02;9.02;;;;;;;;;;10314869;28;20053;-58
2021/04/26 04:25:53;;;;;;;6.00;4.82;;;;;;;;;;10315705;28;20053;-58
2021/04/26 04:30:51;;;;;;;10.15;6.47;;;;;;;;;;10315296;28;20059;-58
2021/04/26 04:36:27;;;;;;;17.20;12.18;;;;;;;;;;10315967;28;20048;-59
2021/04/26 04:41:43;;;;;;;6.53;4.55;;;;;;;;;;10318641;28;20048;-59
2021/04/26 04:46:40;;;;;;;6.15;5.30;;;;;;;;;;10322803;28;20981;-58
2021/04/26 04:51:51;;;;;;;4.32;3.85;;;;;;;;;;10322890;28;20457;-59
2021/04/26 04:56:50;;;;;;;4.82;4.38;;;;;;;;;;10322784;28;20514;-59
2021/04/26 05:01:48;;;;;;;6.22;4.47;;;;;;;;;;10318845;28;20083;-59
2021/04/26 05:07:05;;;;;;;6.72;4.20;;;;;;;;;;10321023;28;20084;-59
2021/04/26 05:12:31;;;;;;;5.75;4.78;;;;;;;;;;10317742;28;20496;-60
2021/04/26 05:17:52;;;;;;;6.28;4.88;;;;;;;;;;10321144;28;20170;-58
2021/04/26 05:22:51;;;;;;;5.85;4.38;;;;;;;;;;10323354;28;20040;-58
2021/04/26 05:27:48;;;;;;;10.20;4.30;;;;;;;;;;10321442;28;20049;-59
2021/04/26 05:32:46;;;;;;;7.55;4.47;;;;;;;;;;10322776;28;20080;-59
2021/04/26 05:38:11;;;;;;;7.63;6.75;;;;;;;;;;10322692;28;20048;-59
2021/04/26 05:43:08;;;;;;;9.70;4.38;;;;;;;;;;10321677;28;20064;-59
2021/04/26 05:48:08;;;;;;;8.50;4.20;;;;;;;;;;10321925;28;20514;-59
2021/04/26 05:53:05;;;;;;;8.27;3.95;;;;;;;;;;10320992;28;20406;-59
2021/04/26 05:58:03;;;;;;;10.63;6.38;;;;;;;;;;10320792;28;20052;-60
2021/04/26 06:03:01;;;;;;;13.85;4.93;;;;;;;;;;10321772;28;20076;-59
2021/04/26 06:07:59;;;;;;;15.57;6.55;;;;;;;;;;10321635;28;20529;-60
2021/04/26 06:12:56;;;;;;;11.30;6.15;;;;;;;;;;10321328;28;20537;-60
2021/04/26 06:18:06;;;;;;;5.28;4.22;;;;;;;;;;10321219;28;20048;-59
2021/04/26 06:23:03;;;;;;;11.70;6.65;;;;;;;;;;10320430;28;20040;-59
2021/04/26 06:28:01;;;;;;;14.70;6.28;;;;;;;;;;10320888;28;20052;-59
2021/04/26 06:32:58;;;;;;;7.85;5.95;;;;;;;;;;10320256;28;20071;-60
2021/04/26 06:37:57;;;;;;;6.03;3.80;;;;;;;;;;10320354;28;20045;-60
2021/04/26 06:42:54;;;;;;;8.02;5.57;;;;;;;;;;10320339;28;20454;-59
2021/04/26 06:47:52;;;;;;;5.70;4.75;;;;;;;;;;10319805;28;20044;-60
2021/04/26 06:52:50;;;;;;;6.45;4.80;;;;;;;;;;10319321;28;20051;-60
2021/04/26 06:57:48;;;;;;;4.88;3.30;;;;;;;;;;10319274;28;20055;-60
2021/04/26 07:02:47;;;;;;;9.23;4.22;;;;;;;;;;10319230;28;20049;-59
2021/04/26 07:07:44;;;;;;;5.47;4.40;;;;;;;;;;10318815;28;20044;-59
2021/04/26 07:12:42;;;;;;;7.63;4.50;;;;;;;;;;10318788;28;20090;-59
2021/04/26 07:17:40;;;;;;;6.43;5.38;;;;;;;;;;10318921;28;20063;-59
2021/04/26 07:22:39;;;;;;;8.10;4.72;;;;;;;;;;10318863;28;20045;-59
2021/04/26 07:27:36;;;;;;;12.00;6.22;;;;;;;;;;10318244;28;20041;-59
2021/04/26 07:32:34;;;;;;;13.45;6.22;;;;;;;;;;10318234;28;20087;-59
2021/04/26 07:37:33;;;;;;;10.77;5.18;;;;;;;;;;10317328;28;20424;-59
2021/04/26 07:42:30;;;;;;;7.90;4.90;;;;;;;;;;10317118;28;20418;-59
2021/04/26 07:47:27;;;;;;;7.32;6.18;;;;;;;;;;10317169;28;20040;-60
2021/04/26 07:52:25;;;;;;;7.95;6.18;;;;;;;;;;10317244;28;20147;-60
2021/04/26 07:57:25;;;;;;;12.75;7.72;;;;;;;;;;10317112;28;20053;-59
2021/04/26 08:02:22;;;;;;;10.07;6.10;;;;;;;;;;10316921;28;20052;-59
2021/04/26 08:07:20;;;;;;;9.55;6.50;;;;;;;;;;10317293;28;20044;-59
2021/04/26 08:12:18;;;;;;;13.00;7.28;;;;;;;;;;10317463;28;20122;-59
2021/04/26 08:17:16;;;;;;;8.00;6.43;;;;;;;;;;10316556;28;20041;-59
2021/04/26 08:22:13;;;;;;;8.82;5.55;;;;;;;;;;10316679;28;20497;-59
2021/04/26 08:27:11;;;;;;;10.38;5.90;;;;;;;;;;10316906;28;20583;-61
2021/04/26 08:32:08;;;;;;;6.68;5.40;;;;;;;;;;10317273;28;20072;-61
2021/04/26 08:37:06;;;;;;;7.32;6.07;;;;;;;;;;10317216;28;20052;-61
2021/04/26 08:42:05;;;;;;;10.85;5.78;;;;;;;;;;10316310;28;20048;-59
2021/04/26 08:47:02;;;;;;;10.00;5.38;;;;;;;;;;10316641;28;20081;-60
2021/04/26 08:52:00;;;;;;;8.02;5.10;;;;;;;;;;10315806;28;20044;-60
2021/04/26 08:56:58;;;;;;;10.10;5.78;;;;;;;;;;10316623;28;20394;-60
2021/04/26 09:01:59;;;;;;;8.10;5.50;;;;;;;;;;10316199;28;20052;-59
2021/04/26 09:06:59;;;;;;;8.02;5.25;;;;;;;;;;10316420;28;20056;-59
2021/04/26 09:11:56;;;;;;;7.50;5.10;;;;;;;;;;10316224;28;20086;-59
2021/04/26 09:16:54;;;;;;;9.13;5.07;;;;;;;;;;10315902;28;20074;-60
2021/04/26 09:21:51;;;;;;;6.22;4.28;;;;;;;;;;10316241;28;20084;-59
2021/04/26 09:27:04;;;;;;;8.85;4.80;;;;;;;;;;10315480;28;20052;-60
2021/04/26 09:32:22;;;;;;;7.75;5.15;;;;;;;;;;10320899;28;20079;-59
2021/04/26 09:37:20;;;;;;;10.48;4.78;;;;;;;;;;10322566;28;20044;-59
2021/04/26 09:42:32;;;;;;;6.40;4.75;;;;;;;;;;10322332;28;20067;-59
2021/04/26 09:47:31;;;;;;;9.20;5.30;;;;;;;;;;10322464;28;20044;-59
2021/04/26 09:52:28;;;;;;;8.32;5.43;;;;;;;;;;10321693;28;20072;-59
2021/04/26 09:57:26;;;;;;;6.68;4.20;;;;;;;;;;10321809;28;20052;-58
2021/04/26 10:02:24;;;;;;;10.30;4.60;;;;;;;;;;10321694;28;20068;-59
2021/04/26 10:07:22;;;;;;;5.85;4.53;;;;;;;;;;10321475;28;20045;-59
2021/04/26 10:12:20;;;;;;;9.63;4.75;;;;;;;;;;10321210;28;20083;-59
2021/04/26 10:17:20;;;;;;;6.57;4.47;;;;;;;;;;10321192;28;20055;-59
2021/04/26 10:22:33;;;;;;;5.18;4.13;;;;;;;;;;10321660;28;20048;-59
2021/04/26 10:27:31;;;;;;;6.15;4.30;;;;;;;;;;10321328;28;20053;-59
2021/04/26 10:32:29;;;;;;;7.57;4.30;;;;;;;;;;10320735;28;20071;-58
2021/04/26 10:37:28;;;;;;;9.32;4.28;;;;;;;;;;10320601;28;20053;-59
2021/04/26 10:42:30;;;;;;;6.28;4.28;;;;;;;;;;10319929;28;20047;-59
2021/04/26 10:47:35;;;;;;;5.45;4.60;;;;;;;;;;10320759;28;20079;-59
2021/04/26 10:52:39;;;;;;;6.68;4.10;;;;;;;;;;10319639;28;20087;-58
2021/04/26 10:57:40;;;;;;;6.50;3.70;;;;;;;;;;10319270;28;20420;-59
2021/04/26 11:02:38;;;;;;;9.10;5.13;;;;;;;;;;10319692;28;20048;-59
2021/04/26 11:07:36;;;;;;;9.57;7.50;;;;;;;;;;10319280;28;20106;-59
2021/04/26 11:12:34;;;;;;;9.27;4.88;;;;;;;;;;10319334;28;20084;-59
2021/04/26 11:17:32;;;;;;;12.65;4.40;;;;;;;;;;10319024;28;20051;-59
2021/04/26 11:22:33;;;;;;;4.78;3.42;;;;;;;;;;10319111;28;20044;-59
2021/04/26 11:27:32;;;;;;;8.18;4.28;;;;;;;;;;10319006;28;20044;-59
2021/04/26 11:32:29;;;;;;;8.07;4.03;;;;;;;;;;10318914;28;20493;-59
2021/04/26 11:37:27;;;;;;;6.22;3.42;;;;;;;;;;10318655;28;20076;-60
2021/04/26 11:42:26;;;;;;;7.40;3.92;;;;;;;;;;10318109;28;20080;-58
2021/04/26 11:47:24;;;;;;;7.75;3.40;;;;;;;;;;10317404;28;20053;-59
2021/04/26 11:52:22;;;;;;;10.55;4.38;;;;;;;;;;10317015;28;20080;-59
2021/04/26 11:57:22;;;;;;;7.38;4.40;;;;;;;;;;10317119;28;20088;-59
2021/04/26 12:02:26;;;;;;;10.73;4.15;;;;;;;;;;10316782;28;20044;-59
2021/04/26 12:07:23;;;;;;;5.70;3.60;;;;;;;;;;10316804;28;20052;-59
2021/04/26 12:12:22;;;;;;;12.93;4.60;;;;;;;;;;10316746;28;20086;-59
2021/04/26 12:17:23;;;;;;;8.60;4.25;;;;;;;;;;10316572;28;20045;-59
2021/04/26 12:22:22;;;;;;;10.30;5.20;;;;;;;;;;10316903;28;20052;-59
2021/04/26 12:27:20;;;;;;;8.70;4.15;;;;;;;;;;10316845;28;20397;-59
2021/04/26 12:32:19;;;;;;;9.90;5.32;;;;;;;;;;10316461;28;20083;-59
2021/04/26 12:37:16;;;;;;;11.18;5.43;;;;;;;;;;10316418;28;20052;-59
2021/04/26 12:42:16;;;;;;;8.75;5.05;;;;;;;;;;10316262;28;20079;-59
2021/04/26 12:47:21;;;;;;;9.20;4.80;;;;;;;;;;10317020;28;20045;-59
2021/04/26 12:52:19;;;;;;;10.43;5.97;;;;;;;;;;10316218;28;20084;-59
2021/04/26 12:57:23;;;;;;;7.97;5.03;;;;;;;;;;10316391;28;20064;-59
2021/04/26 13:02:22;;;;;;;8.40;5.00;;;;;;;;;;10316251;28;20053;-59
2021/04/26 13:07:19;;;;;;;9.18;5.55;;;;;;;;;;10321695;28;20047;-59
2021/04/26 13:12:25;;;;;;;6.93;4.63;;;;;;;;;;10323879;28;20080;-59
2021/04/26 13:17:33;;;;;;;11.75;5.32;;;;;;;;;;10324118;28;20072;-60
2021/04/26 13:22:31;;;;;;;7.65;5.25;;;;;;;;;;10323490;28;20041;-59
2021/04/26 13:27:40;;;;;;;10.55;5.32;;;;;;;;;;10323170;28;20063;-59
2021/04/26 13:32:39;;;;;;;6.75;3.95;;;;;;;;;;10323820;28;20493;-59
2021/04/26 13:37:37;;;;;;;11.02;5.07;;;;;;;;;;10322651;28;20040;-59
2021/04/26 13:42:34;;;;;;;6.60;4.95;;;;;;;;;;10322597;28;20051;-59
2021/04/26 13:47:31;;;;;;;7.22;5.07;;;;;;;;;;10323144;28;20044;-59
2021/04/26 13:52:30;;;;;;;8.10;4.63;;;;;;;;;;10322866;28;20095;-59
2021/04/26 13:57:27;;;;;;;12.15;5.07;;;;;;;;;;10321653;28;20060;-59
2021/04/26 14:02:25;;;;;;;12.13;4.78;;;;;;;;;;10322212;28;20394;-59
2021/04/26 14:07:22;;;;;;;8.35;4.32;;;;;;;;;;10322053;28;20067;-59
2021/04/26 14:12:21;;;;;;;6.72;5.90;;;;;;;;;;10321923;28;20091;-58
2021/04/26 14:17:18;;;;;;;9.05;5.18;;;;;;;;;;10320624;28;20071;-59
2021/04/26 14:22:16;;;;;;;5.18;4.00;;;;;;;;;;10321240;28;20044;-59
2021/04/26 14:27:13;;;;;;;10.55;6.18;;;;;;;;;;10320384;28;20067;-59
2021/04/26 14:32:11;;;;;;;6.57;5.53;;;;;;;;;;10320374;28;20084;-59
2021/04/26 14:37:09;;;;;;;12.68;7.18;;;;;;;;;;10320040;28;20040;-55
2021/04/26 14:42:07;;;;;;;9.35;6.18;;;;;;;;;;10320789;28;20045;-57
2021/04/26 14:47:04;;;;;;;12.27;8.05;;;;;;;;;;10319648;28;20072;-59
2021/04/26 14:52:02;;;;;;;21.75;14.43;;;;;;;;;;10319106;28;20080;-55
2021/04/26 14:57:00;;;;;;;16.83;12.07;;;;;;;;;;10319586;28;20049;-58
2021/04/26 15:01:57;;;;;;;9.43;7.60;;;;;;;;;;10319096;28;20059;-59
2021/04/26 15:06:55;;;;;;;8.98;6.18;;;;;;;;;;10319491;28;20504;-58
2021/04/26 15:11:53;;;;;;;10.43;7.65;;;;;;;;;;10318681;28;20099;-58
2021/04/26 15:16:50;;;;;;;8.05;5.43;;;;;;;;;;10318658;28;20045;-58
2021/04/26 15:21:47;;;;;;;19.95;9.98;;;;;;;;;;10318758;28;20045;-59
2021/04/26 15:26:45;;;;;;;10.50;7.55;;;;;;;;;;10318088;28;20425;-59
2021/04/26 15:31:43;;;;;;;11.85;6.78;;;;;;;;;;10318647;28;20075;-59
2021/04/26 15:36:41;;;;;;;19.15;12.05;;;;;;;;;;10317790;28;20485;-59
2021/04/26 15:41:38;;;;;;;18.58;12.43;;;;;;;;;;10317173;28;20079;-56
2021/04/26 15:46:38;;;;;;;19.40;11.52;;;;;;;;;;10317105;28;20045;-58
2021/04/26 15:51:36;;;;;;;14.20;9.77;;;;;;;;;;10317218;28;20088;-59
2021/04/26 15:56:34;;;;;;;11.45;8.70;;;;;;;;;;10317686;28;20052;-60
2021/04/26 16:01:31;;;;;;;13.63;9.13;;;;;;;;;;10317641;28;20056;-59
2021/04/26 16:06:28;;;;;;;31.70;16.20;;;;;;;;;;10316864;28;20345;-57
2021/04/26 16:11:27;;;;;;;33.65;19.42;;;;;;;;;;10313575;28;20079;-60
2021/04/26 16:16:24;;;;;;;36.13;28.95;;;;;;;;;;10320113;28;20052;-59
2021/04/26 16:21:22;;;;;;;19.65;14.50;;;;;;;;;;10331474;28;20083;-60
2021/04/26 16:26:19;;;;;;;42.53;27.63;;;;;;;;;;10329721;28;20250;-58
2021/04/26 16:31:18;;;;;;;117.38;81.72;;;;;;;;;;10332858;28;20079;-59
2021/04/26 16:36:15;;;;;;;85.97;55.22;;;;;;;;;;10324613;28;20080;-59
2021/04/26 16:41:12;;;;;;;56.40;35.65;;;;;;;;;;10323053;28;20068;-59
2021/04/26 16:46:10;;;;;;;36.90;28.23;;;;;;;;;;10362349;28;20078;-59
2021/04/26 16:51:08;;;;;;;14.88;9.15;;;;;;;;;;10342455;28;20052;-59
2021/04/26 16:56:06;;;;;;;33.33;20.33;;;;;;;;;;10335954;28;20068;-60
2021/04/26 17:01:04;;;;;;;12.48;8.60;;;;;;;;;;10326272;28;20080;-59
2021/04/26 17:06:01;;;;;;;6.50;4.85;;;;;;;;;;10323076;28;20063;-61
2021/04/26 17:11:02;;;;;;;10.02;5.75;;;;;;;;;;10353651;28;20071;-60
2021/04/26 17:16:00;;;;;;;7.30;5.22;;;;;;;;;;10332589;28;20055;-59
2021/04/26 17:20:57;;;;;;;10.90;5.45;;;;;;;;;;10353407;28;20083;-59
2021/04/26 17:25:54;;;;;;;7.05;4.85;;;;;;;;;;10332856;28;20040;-59
2021/04/26 17:30:53;;;;;;;7.75;5.35;;;;;;;;;;10351154;28;20075;-59
2021/04/26 17:35:50;;;;;;;10.07;5.35;;;;;;;;;;10362829;28;20067;-59
2021/04/26 17:40:49;;;;;;;21.25;10.60;;;;;;;;;;10332638;28;20052;-59
2021/04/26 17:45:46;;;;;;;18.45;7.78;;;;;;;;;;10351235;28;20044;-59
2021/04/26 17:50:45;;;;;;;10.73;7.28;;;;;;;;;;10332562;28;20048;-59
2021/04/26 17:55:42;;;;;;;26.95;18.05;;;;;;;;;;10349588;28;20074;-59
2021/04/26 18:00:39;;;;;;;9.88;4.68;;;;;;;;;;10332977;28;20115;-59
2021/04/26 18:05:37;;;;;;;10.18;4.00;;;;;;;;;;10348717;28;20157;-59
2021/04/26 18:10:35;;;;;;;14.27;9.60;;;;;;;;;;10333862;28;20095;-60
2021/04/26 18:15:33;;;;;;;14.00;8.93;;;;;;;;;;10348873;28;20068;-60
2021/04/26 18:20:32;;;;;;;9.07;5.18;;;;;;;;;;10334877;28;20068;-59
2021/04/26 18:25:32;;;;;;;6.50;5.30;;;;;;;;;;10348517;28;20043;-58
2021/04/26 18:30:30;;;;;;;16.70;12.38;;;;;;;;;;10334419;28;20515;-59
2021/04/26 18:35:27;;;;;;;27.40;18.25;;;;;;;;;;10347095;28;20072;-58
2021/04/26 18:40:24;;;;;;;27.77;16.58;;;;;;;;;;10334838;28;20079;-58
2021/04/26 18:45:25;;;;;;;35.17;28.75;;;;;;;;;;10346236;28;20051;-59
2021/04/26 18:50:24;;;;;;;17.17;10.45;;;;;;;;;;10334447;28;20133;-59
2021/04/26 18:55:21;;;;;;;17.67;8.02;;;;;;;;;;10345305;28;20068;-59
2021/04/26 19:00:19;;;;;;;13.25;7.88;;;;;;;;;;10334049;28;20087;-59
2021/04/26 19:05:16;;;;;;;10.35;8.30;;;;;;;;;;10343416;28;20056;-60
2021/04/26 19:10:19;;;;;;;16.65;11.20;;;;;;;;;;10334427;28;20052;-59
2021/04/26 19:15:17;;;;;;;15.32;9.52;;;;;;;;;;10344211;28;20352;-60
2021/04/26 19:20:16;;;;;;;12.00;9.07;;;;;;;;;;10334899;28;20080;-60
2021/04/26 19:25:14;;;;;;;11.07;9.70;;;;;;;;;;10343421;28;20044;-59
2021/04/26 19:30:14;;;;;;;11.38;9.27;;;;;;;;;;10334642;28;20079;-59
2021/04/26 19:35:13;;;;;;;12.38;9.27;;;;;;;;;;10342066;28;20090;-59
2021/04/26 19:40:15;;;;;;;11.23;8.77;;;;;;;;;;10333552;28;20517;-59
2021/04/26 19:45:14;;;;;;;11.52;9.02;;;;;;;;;;10342639;28;20480;-58
2021/04/26 19:50:12;;;;;;;13.77;9.20;;;;;;;;;;10339567;28;20083;-59
2021/04/26 19:55:14;;;;;;;13.35;8.00;;;;;;;;;;10334451;28;20683;-59
2021/04/26 20:00:11;;;;;;;12.68;8.15;;;;;;;;;;10342860;28;20095;-57
2021/04/26 20:05:11;;;;;;;13.02;8.10;;;;;;;;;;10356171;28;20071;-58
2021/04/26 20:10:09;;;;;;;16.00;7.78;;;;;;;;;;10355466;28;20079;-58
2021/04/26 20:15:07;;;;;;;12.43;7.55;;;;;;;;;;10356675;28;20091;-58
2021/04/26 20:20:05;;;;;;;16.45;8.23;;;;;;;;;;10358635;28;20051;-59
2021/04/26 20:25:04;;;;;;;11.77;8.25;;;;;;;;;;10357413;28;20036;-58
2021/04/26 20:30:02;;;;;;;10.90;8.13;;;;;;;;;;10358611;28;20650;-59
2021/04/26 20:35:00;;;;;;;14.05;8.93;;;;;;;;;;10358501;28;20084;-59
2021/04/26 20:39:58;;;;;;;17.55;9.07;;;;;;;;;;10356989;28;20040;-60
2021/04/26 20:44:56;;;;;;;18.80;9.77;;;;;;;;;;10357949;28;20513;-60
2021/04/26 20:49:53;;;;;;;18.80;9.93;;;;;;;;;;10356989;28;20067;-59
2021/04/26 20:54:51;;;;;;;11.23;9.40;;;;;;;;;;10357849;28;20068;-59
2021/04/26 20:59:49;;;;;;;15.98;9.45;;;;;;;;;;10357001;28;20059;-58
2021/04/26 21:04:47;;;;;;;20.70;9.85;;;;;;;;;;10357391;28;20044;-57
2021/04/26 21:09:45;;;;;;;11.05;9.00;;;;;;;;;;10357352;28;20040;-59
2021/04/26 21:14:42;;;;;;;16.27;9.50;;;;;;;;;;10357403;28;20087;-59
2021/04/26 21:19:39;;;;;;;10.60;8.35;;;;;;;;;;10357382;28;20098;-59
2021/04/26 21:24:37;;;;;;;12.25;10.13;;;;;;;;;;10357555;28;20047;-59
2021/04/26 21:29:35;;;;;;;13.75;11.15;;;;;;;;;;10364806;28;20040;-59
2021/04/26 21:34:32;;;;;;;13.70;9.45;;;;;;;;;;10364604;28;20079;-59
2021/04/26 21:39:30;;;;;;;13.38;9.35;;;;;;;;;;10364532;28;20047;-58
2021/04/26 21:44:28;;;;;;;12.07;9.07;;;;;;;;;;10364213;28;20047;-60
2021/04/26 21:49:26;;;;;;;11.73;8.57;;;;;;;;;;10363984;28;20040;-59
2021/04/26 21:54:23;;;;;;;11.23;7.85;;;;;;;;;;10363752;28;20080;-60
2021/04/26 21:59:21;;;;;;;10.85;8.43;;;;;;;;;;10363034;28;20508;-58
2021/04/26 22:04:19;;;;;;;10.15;7.97;;;;;;;;;;10363375;28;20051;-57
2021/04/26 22:09:16;;;;;;;15.80;9.50;;;;;;;;;;10363173;28;20048;-58
2021/04/26 22:14:14;;;;;;;12.75;9.57;;;;;;;;;;10362904;28;20532;-57
2021/04/26 22:19:11;;;;;;;12.48;10.07;;;;;;;;;;10360852;28;20074;-58
2021/04/26 22:24:11;;;;;;;13.07;10.00;;;;;;;;;;10362485;28;20044;-58
2021/04/26 22:29:09;;;;;;;13.98;9.75;;;;;;;;;;10362514;28;20044;-58
2021/04/26 22:34:06;;;;;;;10.75;8.10;;;;;;;;;;10362279;28;20504;-58
2021/04/26 22:39:04;;;;;;;11.50;9.15;;;;;;;;;;10360842;28;20048;-57
2021/04/26 22:44:03;;;;;;;10.70;8.98;;;;;;;;;;10361555;28;20079;-58
2021/04/26 22:49:00;;;;;;;8.75;7.78;;;;;;;;;;10361679;28;20512;-58
2021/04/26 22:53:57;;;;;;;13.77;9.13;;;;;;;;;;10361195;28;20076;-58
2021/04/26 22:58:55;;;;;;;14.30;9.38;;;;;;;;;;10360263;28;20497;-59
2021/04/26 23:03:53;;;;;;;22.48;10.57;;;;;;;;;;10360209;28;20047;-59
2021/04/26 23:08:51;;;;;;;10.07;8.65;;;;;;;;;;10358419;28;20048;-58
2021/04/26 23:13:48;;;;;;;10.63;9.05;;;;;;;;;;10359585;28;20079;-58
2021/04/26 23:18:46;;;;;;;11.55;10.00;;;;;;;;;;10360209;28;20047;-58
2021/04/26 23:23:44;;;;;;;15.90;10.30;;;;;;;;;;10359845;28;20459;-59
2021/04/26 23:28:41;;;;;;;14.57;9.65;;;;;;;;;;10359910;28;20051;-59
2021/04/26 23:33:39;;;;;;;10.63;9.48;;;;;;;;;;10359655;28;20076;-59
2021/04/26 23:38:36;;;;;;;9.93;8.32;;;;;;;;;;10359506;28;20040;-57
2021/04/26 23:43:35;;;;;;;11.10;7.78;;;;;;;;;;10358747;28;20067;-59
2021/04/26 23:48:32;;;;;;;14.57;8.88;;;;;;;;;;10358954;28;20072;-59
2021/04/26 23:53:29;;;;;;;10.43;8.95;;;;;;;;;;10359072;28;20076;-58
2021/04/26 23:58:27;;;;;;;14.07;10.80;;;;;;;;;;10358061;28;20052;-58
